sensor_id;sensor_type;location;lat;lon;timestamp;pressure;altitude;pressure_sealevel;temperature;humidity
72961;BME280;61141;46.204;19.774;2023-05-20T00:02:52;100793.69;;;13.42;100.00
72961;BME280;61141;46.204;19.774;2023-05-20T00:05:55;100796.87;;;13.44;100.00
72961;BME280;61141;46.204;19.774;2023-05-20T00:08:57;100791.56;;;13.25;100.00
72961;BME280;61141;46.204;19.774;2023-05-20T00:12:02;100790.03;;;13.31;100.00
72961;BME280;61141;46.204;19.774;2023-05-20T00:15:05;100767.81;;;13.10;100.00
72961;BME280;61141;46.204;19.774;2023-05-20T00:18:08;100778.56;;;13.22;100.00
72961;BME280;61141;46.204;19.774;2023-05-20T00:21:11;100787.31;;;13.02;100.00
72961;BME280;61141;46.204;19.774;2023-05-20T00:24:14;100784.03;;;13.19;100.00
72961;BME280;61141;46.204;19.774;2023-05-20T00:27:16;100791.62;;;13.32;100.00
72961;BME280;61141;46.204;19.774;2023-05-20T00:30:19;100805.44;;;13.36;100.00
72961;BME280;61141;46.204;19.774;2023-05-20T00:33:23;100792.50;;;13.40;100.00
72961;BME280;61141;46.204;19.774;2023-05-20T00:36:26;100796.37;;;13.35;100.00
72961;BME280;61141;46.204;19.774;2023-05-20T00:39:29;100797.94;;;13.33;100.00
72961;BME280;61141;46.204;19.774;2023-05-20T00:42:32;100792.31;;;13.22;100.00
72961;BME280;61141;46.204;19.774;2023-05-20T00:45:36;100793.88;;;13.23;100.00
72961;BME280;61141;46.204;19.774;2023-05-20T00:48:42;100784.44;;;13.21;100.00
72961;BME280;61141;46.204;19.774;2023-05-20T00:51:45;100783.97;;;13.15;100.00
72961;BME280;61141;46.204;19.774;2023-05-20T00:54:49;100789.13;;;13.20;100.00
72961;BME280;61141;46.204;19.774;2023-05-20T00:57:53;100790.69;;;13.18;100.00
72961;BME280;61141;46.204;19.774;2023-05-20T01:00:56;100791.28;;;13.04;100.00
72961;BME280;61141;46.204;19.774;2023-05-20T01:03:59;100776.41;;;12.79;100.00
72961;BME280;61141;46.204;19.774;2023-05-20T01:07:04;100797.66;;;12.78;100.00
72961;BME280;61141;46.204;19.774;2023-05-20T01:10:08;100798.12;;;12.84;100.00
72961;BME280;61141;46.204;19.774;2023-05-20T01:13:15;100794.13;;;12.81;100.00
72961;BME280;61141;46.204;19.774;2023-05-20T01:16:19;100796.41;;;12.76;100.00
72961;BME280;61141;46.204;19.774;2023-05-20T01:22:58;100781.56;;;12.80;100.00
72961;BME280;61141;46.204;19.774;2023-05-20T01:26:01;100787.22;;;12.65;100.00
72961;BME280;61141;46.204;19.774;2023-05-20T01:29:04;100788.84;;;12.40;100.00
72961;BME280;61141;46.204;19.774;2023-05-20T01:32:26;100783.66;;;12.34;100.00
72961;BME280;61141;46.204;19.774;2023-05-20T01:35:30;100783.63;;;12.31;100.00
72961;BME280;61141;46.204;19.774;2023-05-20T01:38:35;100794.22;;;12.32;100.00
72961;BME280;61141;46.204;19.774;2023-05-20T01:41:39;100778.84;;;12.02;100.00
72961;BME280;61141;46.204;19.774;2023-05-20T01:44:43;100786.00;;;12.06;100.00
72961;BME280;61141;46.204;19.774;2023-05-20T01:47:46;100782.31;;;11.99;100.00
72961;BME280;61141;46.204;19.774;2023-05-20T01:50:49;100777.53;;;11.92;100.00
72961;BME280;61141;46.204;19.774;2023-05-20T01:53:52;100777.03;;;11.87;100.00
72961;BME280;61141;46.204;19.774;2023-05-20T01:56:55;100776.31;;;11.90;100.00
72961;BME280;61141;46.204;19.774;2023-05-20T01:59:58;100775.19;;;11.94;100.00
72961;BME280;61141;46.204;19.774;2023-05-20T02:03:01;100782.87;;;12.08;100.00
72961;BME280;61141;46.204;19.774;2023-05-20T02:06:05;100783.94;;;12.26;100.00
72961;BME280;61141;46.204;19.774;2023-05-20T02:09:08;100789.16;;;12.34;100.00
72961;BME280;61141;46.204;19.774;2023-05-20T02:12:11;100782.16;;;12.37;100.00
72961;BME280;61141;46.204;19.774;2023-05-20T02:15:18;100779.22;;;12.26;100.00
72961;BME280;61141;46.204;19.774;2023-05-20T02:18:21;100776.84;;;12.25;100.00
72961;BME280;61141;46.204;19.774;2023-05-20T02:21:24;100781.22;;;12.29;100.00
72961;BME280;61141;46.204;19.774;2023-05-20T02:24:28;100748.31;;;12.07;100.00
72961;BME280;61141;46.204;19.774;2023-05-20T02:27:31;100781.88;;;12.19;100.00
72961;BME280;61141;46.204;19.774;2023-05-20T02:30:34;100772.75;;;12.12;100.00
72961;BME280;61141;46.204;19.774;2023-05-20T02:33:37;100786.16;;;12.17;100.00
72961;BME280;61141;46.204;19.774;2023-05-20T02:36:40;100767.59;;;12.10;100.00
72961;BME280;61141;46.204;19.774;2023-05-20T02:39:43;100774.28;;;12.09;100.00
72961;BME280;61141;46.204;19.774;2023-05-20T02:42:47;100780.53;;;12.10;100.00
72961;BME280;61141;46.204;19.774;2023-05-20T02:45:50;100783.34;;;12.13;100.00
72961;BME280;61141;46.204;19.774;2023-05-20T02:48:53;100789.25;;;12.15;100.00
72961;BME280;61141;46.204;19.774;2023-05-20T02:51:57;100786.94;;;12.17;100.00
72961;BME280;61141;46.204;19.774;2023-05-20T02:55:01;100792.06;;;12.19;100.00
72961;BME280;61141;46.204;19.774;2023-05-20T02:58:04;100772.63;;;12.05;100.00
72961;BME280;61141;46.204;19.774;2023-05-20T03:01:07;100787.62;;;12.11;100.00
72961;BME280;61141;46.204;19.774;2023-05-20T03:04:11;100783.13;;;11.76;100.00
72961;BME280;61141;46.204;19.774;2023-05-20T03:07:14;100783.22;;;11.61;100.00
72961;BME280;61141;46.204;19.774;2023-05-20T03:10:21;100786.88;;;11.68;100.00
72961;BME280;61141;46.204;19.774;2023-05-20T03:13:24;100778.31;;;11.70;100.00
72961;BME280;61141;46.204;19.774;2023-05-20T03:16:26;100782.56;;;11.67;100.00
72961;BME280;61141;46.204;19.774;2023-05-20T03:19:30;100788.63;;;11.76;100.00
72961;BME280;61141;46.204;19.774;2023-05-20T03:22:33;100788.63;;;11.76;100.00
72961;BME280;61141;46.204;19.774;2023-05-20T03:25:36;100799.47;;;11.69;100.00
72961;BME280;61141;46.204;19.774;2023-05-20T03:28:39;100787.13;;;11.79;100.00
72961;BME280;61141;46.204;19.774;2023-05-20T03:31:43;100786.59;;;11.96;100.00
72961;BME280;61141;46.204;19.774;2023-05-20T03:34:46;100790.69;;;12.06;100.00
72961;BME280;61141;46.204;19.774;2023-05-20T03:37:49;100778.28;;;12.15;100.00
72961;BME280;61141;46.204;19.774;2023-05-20T03:40:55;100775.31;;;12.27;100.00
72961;BME280;61141;46.204;19.774;2023-05-20T03:43:58;100762.59;;;12.42;100.00
72961;BME280;61141;46.204;19.774;2023-05-20T03:47:01;100779.97;;;12.50;100.00
72961;BME280;61141;46.204;19.774;2023-05-20T03:50:05;100789.81;;;12.51;100.00
72961;BME280;61141;46.204;19.774;2023-05-20T03:53:08;100789.16;;;12.61;100.00
72961;BME280;61141;46.204;19.774;2023-05-20T03:56:11;100789.34;;;12.75;100.00
72961;BME280;61141;46.204;19.774;2023-05-20T03:59:14;100784.44;;;12.91;100.00
72961;BME280;61141;46.204;19.774;2023-05-20T04:02:17;100775.34;;;12.87;100.00
72961;BME280;61141;46.204;19.774;2023-05-20T04:05:22;100797.84;;;12.96;100.00
72961;BME280;61141;46.204;19.774;2023-05-20T04:08:25;100792.87;;;13.05;100.00
72961;BME280;61141;46.204;19.774;2023-05-20T04:11:28;100793.78;;;13.13;100.00
72961;BME280;61141;46.204;19.774;2023-05-20T04:14:31;100800.13;;;13.20;100.00
72961;BME280;61141;46.204;19.774;2023-05-20T04:17:36;100790.72;;;13.21;100.00
72961;BME280;61141;46.204;19.774;2023-05-20T04:20:41;100797.19;;;13.39;100.00
72961;BME280;61141;46.204;19.774;2023-05-20T04:23:46;100797.25;;;13.43;100.00
72961;BME280;61141;46.204;19.774;2023-05-20T04:26:49;100791.97;;;13.64;100.00
72961;BME280;61141;46.204;19.774;2023-05-20T04:29:52;100804.34;;;13.84;100.00
72961;BME280;61141;46.204;19.774;2023-05-20T04:32:56;100801.06;;;14.16;100.00
72961;BME280;61141;46.204;19.774;2023-05-20T04:35:59;100796.56;;;14.41;100.00
72961;BME280;61141;46.204;19.774;2023-05-20T04:39:04;100794.25;;;14.46;100.00
72961;BME280;61141;46.204;19.774;2023-05-20T04:42:09;100795.09;;;14.57;100.00
72961;BME280;61141;46.204;19.774;2023-05-20T04:45:12;100785.69;;;14.65;100.00
72961;BME280;61141;46.204;19.774;2023-05-20T04:48:15;100793.22;;;14.76;100.00
72961;BME280;61141;46.204;19.774;2023-05-20T04:51:19;100807.88;;;14.90;100.00
72961;BME280;61141;46.204;19.774;2023-05-20T04:54:22;100794.50;;;14.96;100.00
72961;BME280;61141;46.204;19.774;2023-05-20T04:57:26;100796.53;;;15.16;100.00
72961;BME280;61141;46.204;19.774;2023-05-20T05:00:29;100802.53;;;15.40;100.00
72961;BME280;61141;46.204;19.774;2023-05-20T05:03:32;100797.91;;;15.68;100.00
72961;BME280;61141;46.204;19.774;2023-05-20T05:06:38;100810.56;;;15.91;100.00
72961;BME280;61141;46.204;19.774;2023-05-20T05:09:41;100801.06;;;15.92;100.00
72961;BME280;61141;46.204;19.774;2023-05-20T05:12:44;100800.28;;;16.16;100.00
72961;BME280;61141;46.204;19.774;2023-05-20T05:15:57;100815.28;;;16.29;100.00
72961;BME280;61141;46.204;19.774;2023-05-20T05:19:00;100806.97;;;16.32;100.00
72961;BME280;61141;46.204;19.774;2023-05-20T05:22:04;100796.69;;;16.29;100.00
72961;BME280;61141;46.204;19.774;2023-05-20T05:25:09;100813.69;;;16.42;100.00
72961;BME280;61141;46.204;19.774;2023-05-20T05:28:12;100820.37;;;16.52;100.00
72961;BME280;61141;46.204;19.774;2023-05-20T05:31:15;100816.41;;;16.77;100.00
72961;BME280;61141;46.204;19.774;2023-05-20T05:34:18;100813.56;;;16.98;100.00
72961;BME280;61141;46.204;19.774;2023-05-20T05:37:20;100806.81;;;17.10;100.00
72961;BME280;61141;46.204;19.774;2023-05-20T05:40:23;100807.81;;;17.48;98.37
72961;BME280;61141;46.204;19.774;2023-05-20T05:43:28;100804.22;;;17.58;97.31
72961;BME280;61141;46.204;19.774;2023-05-20T05:46:31;100813.72;;;17.57;97.59
72961;BME280;61141;46.204;19.774;2023-05-20T05:49:35;100806.19;;;17.54;96.74
72961;BME280;61141;46.204;19.774;2023-05-20T05:52:38;100817.06;;;17.89;94.08
72961;BME280;61141;46.204;19.774;2023-05-20T05:55:42;100826.47;;;18.02;92.94
72961;BME280;61141;46.204;19.774;2023-05-20T05:58:45;100827.84;;;18.28;91.86
72961;BME280;61141;46.204;19.774;2023-05-20T06:01:50;100810.28;;;18.42;90.59
72961;BME280;61141;46.204;19.774;2023-05-20T06:04:53;100803.88;;;18.52;89.30
72961;BME280;61141;46.204;19.774;2023-05-20T06:07:56;100820.06;;;18.94;88.82
72961;BME280;61141;46.204;19.774;2023-05-20T06:10:59;100820.97;;;19.18;86.24
72961;BME280;61141;46.204;19.774;2023-05-20T06:14:02;100820.66;;;19.09;86.09
72961;BME280;61141;46.204;19.774;2023-05-20T06:17:05;100811.94;;;19.10;86.67
72961;BME280;61141;46.204;19.774;2023-05-20T06:20:09;100817.38;;;18.84;86.86
72961;BME280;61141;46.204;19.774;2023-05-20T06:23:12;100818.31;;;19.07;87.32
72961;BME280;61141;46.204;19.774;2023-05-20T06:26:15;100812.38;;;19.39;85.81
72961;BME280;61141;46.204;19.774;2023-05-20T06:29:18;100812.03;;;19.64;84.57
72961;BME280;61141;46.204;19.774;2023-05-20T06:32:21;100819.28;;;19.58;84.99
72961;BME280;61141;46.204;19.774;2023-05-20T06:35:25;100816.19;;;19.52;84.47
72961;BME280;61141;46.204;19.774;2023-05-20T06:38:28;100834.22;;;19.67;84.16
72961;BME280;61141;46.204;19.774;2023-05-20T06:41:31;100831.28;;;19.51;84.40
72961;BME280;61141;46.204;19.774;2023-05-20T06:44:42;100827.09;;;19.93;83.22
72961;BME280;61141;46.204;19.774;2023-05-20T06:47:45;100822.66;;;20.19;82.09
72961;BME280;61141;46.204;19.774;2023-05-20T06:50:49;100820.97;;;20.28;81.85
72961;BME280;61141;46.204;19.774;2023-05-20T06:53:52;100821.03;;;20.48;81.26
72961;BME280;61141;46.204;19.774;2023-05-20T06:56:55;100816.25;;;20.48;80.68
72961;BME280;61141;46.204;19.774;2023-05-20T06:59:58;100814.59;;;20.51;80.14
72961;BME280;61141;46.204;19.774;2023-05-20T07:03:01;100814.31;;;20.45;79.46
72961;BME280;61141;46.204;19.774;2023-05-20T07:06:05;100810.41;;;20.16;79.75
72961;BME280;61141;46.204;19.774;2023-05-20T07:09:09;100810.13;;;20.34;81.09
72961;BME280;61141;46.204;19.774;2023-05-20T07:12:12;100810.41;;;20.63;80.48
72961;BME280;61141;46.204;19.774;2023-05-20T07:15:15;100819.19;;;20.61;78.76
72961;BME280;61141;46.204;19.774;2023-05-20T07:18:18;100817.19;;;20.38;77.91
72961;BME280;61141;46.204;19.774;2023-05-20T07:21:21;100820.72;;;20.42;78.49
72961;BME280;61141;46.204;19.774;2023-05-20T07:24:25;100807.03;;;20.71;77.71
72961;BME280;61141;46.204;19.774;2023-05-20T07:27:28;100813.94;;;21.06;75.87
72961;BME280;61141;46.204;19.774;2023-05-20T07:30:31;100816.37;;;21.24;76.01
72961;BME280;61141;46.204;19.774;2023-05-20T07:33:35;100808.78;;;21.04;76.81
72961;BME280;61141;46.204;19.774;2023-05-20T07:36:38;100807.91;;;20.88;75.03
72961;BME280;61141;46.204;19.774;2023-05-20T07:39:40;100801.22;;;21.05;75.49
72961;BME280;61141;46.204;19.774;2023-05-20T07:42:43;100797.78;;;21.37;73.35
72961;BME280;61141;46.204;19.774;2023-05-20T07:45:46;100804.69;;;21.48;73.77
72961;BME280;61141;46.204;19.774;2023-05-20T07:48:50;100810.31;;;21.81;73.43
72961;BME280;61141;46.204;19.774;2023-05-20T07:51:53;100806.19;;;21.53;73.77
72961;BME280;61141;46.204;19.774;2023-05-20T07:54:56;100807.66;;;21.22;72.33
72961;BME280;61141;46.204;19.774;2023-05-20T07:57:59;100801.91;;;21.48;73.21
72961;BME280;61141;46.204;19.774;2023-05-20T08:01:02;100807.59;;;21.77;73.96
72961;BME280;61141;46.204;19.774;2023-05-20T08:04:06;100806.84;;;21.93;73.53
72961;BME280;61141;46.204;19.774;2023-05-20T08:07:10;100809.22;;;21.94;72.76
72961;BME280;61141;46.204;19.774;2023-05-20T08:10:13;100803.25;;;21.76;72.50
72961;BME280;61141;46.204;19.774;2023-05-20T08:13:16;100793.59;;;21.81;72.66
72961;BME280;61141;46.204;19.774;2023-05-20T08:16:20;100798.12;;;22.07;72.25
72961;BME280;61141;46.204;19.774;2023-05-20T08:19:23;100798.12;;;22.07;72.15
72961;BME280;61141;46.204;19.774;2023-05-20T08:22:26;100794.47;;;22.10;72.18
72961;BME280;61141;46.204;19.774;2023-05-20T08:25:30;100773.53;;;21.86;71.95
72961;BME280;61141;46.204;19.774;2023-05-20T08:28:33;100781.31;;;22.10;69.82
72961;BME280;61141;46.204;19.774;2023-05-20T08:31:39;100776.25;;;22.21;69.82
72961;BME280;61141;46.204;19.774;2023-05-20T08:34:42;100770.53;;;22.41;69.48
72961;BME280;61141;46.204;19.774;2023-05-20T08:37:45;100763.78;;;22.55;68.97
72961;BME280;61141;46.204;19.774;2023-05-20T08:40:54;100768.25;;;22.52;68.71
72961;BME280;61141;46.204;19.774;2023-05-20T08:43:59;100761.19;;;22.64;69.35
72961;BME280;61141;46.204;19.774;2023-05-20T08:47:04;100760.34;;;22.35;67.89
72961;BME280;61141;46.204;19.774;2023-05-20T08:50:09;100768.47;;;23.15;64.30
72961;BME280;61141;46.204;19.774;2023-05-20T08:53:13;100780.94;;;23.52;63.50
72961;BME280;61141;46.204;19.774;2023-05-20T08:56:16;100775.47;;;23.74;62.60
72961;BME280;61141;46.204;19.774;2023-05-20T08:59:19;100773.34;;;23.65;62.80
72961;BME280;61141;46.204;19.774;2023-05-20T09:02:23;100770.84;;;23.92;61.09
72961;BME280;61141;46.204;19.774;2023-05-20T09:05:26;100769.03;;;24.24;59.43
72961;BME280;61141;46.204;19.774;2023-05-20T09:08:29;100767.50;;;24.10;60.27
72961;BME280;61141;46.204;19.774;2023-05-20T09:11:32;100769.03;;;23.98;60.33
72961;BME280;61141;46.204;19.774;2023-05-20T09:14:35;100776.22;;;24.00;59.43
72961;BME280;61141;46.204;19.774;2023-05-20T09:17:38;100768.66;;;24.34;55.36
72961;BME280;61141;46.204;19.774;2023-05-20T09:20:41;100765.63;;;24.63;55.95
72961;BME280;61141;46.204;19.774;2023-05-20T09:23:47;100757.44;;;24.90;55.57
72961;BME280;61141;46.204;19.774;2023-05-20T09:26:51;100763.47;;;24.67;53.26
72961;BME280;61141;46.204;19.774;2023-05-20T09:29:54;100766.84;;;24.62;53.13
72961;BME280;61141;46.204;19.774;2023-05-20T09:32:58;100758.75;;;24.98;53.36
72961;BME280;61141;46.204;19.774;2023-05-20T09:36:08;100752.72;;;24.66;52.25
72961;BME280;61141;46.204;19.774;2023-05-20T09:39:15;100750.84;;;24.63;50.25
72961;BME280;61141;46.204;19.774;2023-05-20T09:42:24;100747.44;;;24.68;52.29
72961;BME280;61141;46.204;19.774;2023-05-20T09:45:28;100737.59;;;25.06;48.79
72961;BME280;61141;46.204;19.774;2023-05-20T09:48:32;100727.53;;;24.87;47.72
72961;BME280;61141;46.204;19.774;2023-05-20T09:51:35;100725.34;;;24.91;47.84
72961;BME280;61141;46.204;19.774;2023-05-20T09:54:39;100702.66;;;25.29;46.14
72961;BME280;61141;46.204;19.774;2023-05-20T09:57:43;100716.84;;;25.65;46.79
72961;BME280;61141;46.204;19.774;2023-05-20T10:00:47;100710.09;;;25.54;47.02
72961;BME280;61141;46.204;19.774;2023-05-20T10:03:51;100707.34;;;25.81;47.01
72961;BME280;61141;46.204;19.774;2023-05-20T10:07:08;100706.75;;;26.04;45.92
72961;BME280;61141;46.204;19.774;2023-05-20T10:16:56;100700.16;;;25.31;45.22
72961;BME280;61141;46.204;19.774;2023-05-20T10:20:02;100687.22;;;25.64;47.22
72961;BME280;61141;46.204;19.774;2023-05-20T10:23:19;100671.78;;;25.78;47.57
72961;BME280;61141;46.204;19.774;2023-05-20T10:26:34;100671.50;;;24.96;49.60
72961;BME280;61141;46.204;19.774;2023-05-20T10:29:51;100665.38;;;25.20;49.38
72961;BME280;61141;46.204;19.774;2023-05-20T10:32:56;100675.50;;;25.66;49.22
72961;BME280;61141;46.204;19.774;2023-05-20T10:36:00;100648.38;;;25.54;48.28
72961;BME280;61141;46.204;19.774;2023-05-20T10:39:02;100642.47;;;25.88;48.21
72961;BME280;61141;46.204;19.774;2023-05-20T10:42:09;100650.41;;;25.72;48.68
72961;BME280;61141;46.204;19.774;2023-05-20T10:45:27;100668.25;;;26.14;46.46
72961;BME280;61141;46.204;19.774;2023-05-20T10:48:32;100664.16;;;26.51;46.44
72961;BME280;61141;46.204;19.774;2023-05-20T10:51:35;100645.12;;;26.55;45.86
72961;BME280;61141;46.204;19.774;2023-05-20T10:54:45;100666.19;;;25.96;45.44
72961;BME280;61141;46.204;19.774;2023-05-20T10:57:52;100667.91;;;25.94;46.12
72961;BME280;61141;46.204;19.774;2023-05-20T11:00:55;100646.69;;;26.47;44.09
72961;BME280;61141;46.204;19.774;2023-05-20T11:03:59;100652.03;;;26.96;44.67
72961;BME280;61141;46.204;19.774;2023-05-20T11:07:02;100634.00;;;26.70;44.36
72961;BME280;61141;46.204;19.774;2023-05-20T11:10:07;100644.97;;;26.59;45.06
72961;BME280;61141;46.204;19.774;2023-05-20T11:13:12;100620.75;;;26.61;44.22
72961;BME280;61141;46.204;19.774;2023-05-20T11:16:16;100643.69;;;26.60;44.86
72961;BME280;61141;46.204;19.774;2023-05-20T11:19:19;100635.53;;;26.89;43.86
72961;BME280;61141;46.204;19.774;2023-05-20T11:22:22;100635.41;;;26.65;43.73
72961;BME280;61141;46.204;19.774;2023-05-20T11:25:26;100628.38;;;26.61;44.49
72961;BME280;61141;46.204;19.774;2023-05-20T11:28:29;100625.22;;;26.68;44.34
72961;BME280;61141;46.204;19.774;2023-05-20T11:31:36;100620.91;;;26.58;44.25
72961;BME280;61141;46.204;19.774;2023-05-20T11:34:40;100627.81;;;26.11;46.12
72961;BME280;61141;46.204;19.774;2023-05-20T11:37:44;100618.59;;;26.11;45.50
72961;BME280;61141;46.204;19.774;2023-05-20T11:40:51;100608.94;;;26.90;45.74
72961;BME280;61141;46.204;19.774;2023-05-20T11:43:59;100615.00;;;26.47;45.48
72961;BME280;61141;46.204;19.774;2023-05-20T11:47:02;100607.69;;;26.31;45.96
72961;BME280;61141;46.204;19.774;2023-05-20T11:50:08;100613.81;;;26.20;46.16
72961;BME280;61141;46.204;19.774;2023-05-20T11:53:16;100609.28;;;26.83;45.99
72961;BME280;61141;46.204;19.774;2023-05-20T11:56:19;100608.34;;;26.86;45.93
72961;BME280;61141;46.204;19.774;2023-05-20T11:59:23;100612.53;;;25.94;46.25
72961;BME280;61141;46.204;19.774;2023-05-20T12:02:26;100606.56;;;26.38;45.13
72961;BME280;61141;46.204;19.774;2023-05-20T12:05:29;100602.38;;;26.42;45.24
72961;BME280;61141;46.204;19.774;2023-05-20T12:08:32;100606.28;;;26.26;45.19
72961;BME280;61141;46.204;19.774;2023-05-20T12:11:36;100601.91;;;26.95;43.49
72961;BME280;61141;46.204;19.774;2023-05-20T12:14:41;100598.53;;;27.14;42.00
72961;BME280;61141;46.204;19.774;2023-05-20T12:17:49;100591.50;;;27.66;42.96
72961;BME280;61141;46.204;19.774;2023-05-20T12:20:52;100603.00;;;27.21;39.85
72961;BME280;61141;46.204;19.774;2023-05-20T12:23:55;100585.03;;;27.51;40.23
72961;BME280;61141;46.204;19.774;2023-05-20T12:27:01;100593.03;;;27.91;40.35
72961;BME280;61141;46.204;19.774;2023-05-20T12:30:06;100593.00;;;28.29;39.46
72961;BME280;61141;46.204;19.774;2023-05-20T12:33:11;100582.50;;;28.15;40.46
72961;BME280;61141;46.204;19.774;2023-05-20T12:36:14;100576.37;;;27.78;41.19
72961;BME280;61141;46.204;19.774;2023-05-20T12:39:17;100574.97;;;27.97;40.95
72961;BME280;61141;46.204;19.774;2023-05-20T12:42:21;100575.22;;;27.85;40.10
72961;BME280;61141;46.204;19.774;2023-05-20T12:45:23;100562.59;;;27.80;40.88
72961;BME280;61141;46.204;19.774;2023-05-20T12:48:26;100564.62;;;27.80;41.02
72961;BME280;61141;46.204;19.774;2023-05-20T12:51:29;100562.03;;;27.91;39.72
72961;BME280;61141;46.204;19.774;2023-05-20T12:54:32;100556.16;;;27.65;40.16
72961;BME280;61141;46.204;19.774;2023-05-20T12:57:35;100535.06;;;28.28;39.45
72961;BME280;61141;46.204;19.774;2023-05-20T13:00:38;100540.12;;;28.24;40.42
72961;BME280;61141;46.204;19.774;2023-05-20T13:03:41;100537.12;;;28.28;39.68
72961;BME280;61141;46.204;19.774;2023-05-20T13:06:44;100512.72;;;28.10;40.12
72961;BME280;61141;46.204;19.774;2023-05-20T13:09:47;100514.00;;;28.24;40.90
72961;BME280;61141;46.204;19.774;2023-05-20T13:12:50;100512.28;;;28.76;40.64
72961;BME280;61141;46.204;19.774;2023-05-20T13:15:53;100519.03;;;28.98;40.24
72961;BME280;61141;46.204;19.774;2023-05-20T13:18:56;100502.22;;;27.96;41.15
72961;BME280;61141;46.204;19.774;2023-05-20T13:21:59;100517.59;;;28.39;41.61
72961;BME280;61141;46.204;19.774;2023-05-20T13:25:02;100514.63;;;27.75;41.32
72961;BME280;61141;46.204;19.774;2023-05-20T13:28:06;100523.38;;;27.77;40.92
72961;BME280;61141;46.204;19.774;2023-05-20T13:31:09;100516.91;;;28.29;39.65
72961;BME280;61141;46.204;19.774;2023-05-20T13:34:12;100506.66;;;28.61;39.84
72961;BME280;61141;46.204;19.774;2023-05-20T13:37:15;100509.97;;;28.60;39.64
72961;BME280;61141;46.204;19.774;2023-05-20T13:40:18;100510.28;;;28.18;37.81
72961;BME280;61141;46.204;19.774;2023-05-20T13:43:21;100508.91;;;28.72;37.16
72961;BME280;61141;46.204;19.774;2023-05-20T13:46:23;100499.62;;;28.86;36.89
72961;BME280;61141;46.204;19.774;2023-05-20T13:49:26;100503.09;;;28.46;37.61
72961;BME280;61141;46.204;19.774;2023-05-20T13:52:29;100487.66;;;28.41;37.59
72961;BME280;61141;46.204;19.774;2023-05-20T13:55:32;100473.84;;;28.78;36.73
72961;BME280;61141;46.204;19.774;2023-05-20T13:58:35;100488.78;;;28.64;38.07
72961;BME280;61141;46.204;19.774;2023-05-20T14:01:39;100480.69;;;28.22;38.25
72961;BME280;61141;46.204;19.774;2023-05-20T14:04:47;100482.75;;;29.11;37.63
72961;BME280;61141;46.204;19.774;2023-05-20T14:07:49;100480.56;;;28.81;37.10
72961;BME280;61141;46.204;19.774;2023-05-20T14:10:52;100475.69;;;28.17;37.50
72961;BME280;61141;46.204;19.774;2023-05-20T14:13:56;100463.53;;;28.26;37.29
72961;BME280;61141;46.204;19.774;2023-05-20T14:17:00;100471.09;;;28.64;37.12
72961;BME280;61141;46.204;19.774;2023-05-20T14:20:03;100462.31;;;28.96;36.47
72961;BME280;61141;46.204;19.774;2023-05-20T14:23:06;100470.47;;;28.60;36.00
72961;BME280;61141;46.204;19.774;2023-05-20T14:26:09;100476.19;;;28.16;36.32
72961;BME280;61141;46.204;19.774;2023-05-20T14:29:13;100466.06;;;27.80;37.86
72961;BME280;61141;46.204;19.774;2023-05-20T14:32:16;100472.31;;;28.13;37.04
72961;BME280;61141;46.204;19.774;2023-05-20T14:35:19;100455.16;;;28.81;37.12
72961;BME280;61141;46.204;19.774;2023-05-20T14:38:22;100452.19;;;28.70;35.82
72961;BME280;61141;46.204;19.774;2023-05-20T14:41:25;100446.16;;;29.17;35.83
72961;BME280;61141;46.204;19.774;2023-05-20T14:44:29;100454.13;;;28.98;36.67
72961;BME280;61141;46.204;19.774;2023-05-20T14:47:32;100448.97;;;29.17;36.03
72961;BME280;61141;46.204;19.774;2023-05-20T14:50:35;100441.16;;;28.51;37.23
72961;BME280;61141;46.204;19.774;2023-05-20T14:53:38;100433.97;;;28.85;37.03
72961;BME280;61141;46.204;19.774;2023-05-20T14:56:41;100438.47;;;28.77;36.34
72961;BME280;61141;46.204;19.774;2023-05-20T14:59:44;100430.16;;;29.29;35.63
72961;BME280;61141;46.204;19.774;2023-05-20T15:02:47;100416.94;;;29.40;35.91
72961;BME280;61141;46.204;19.774;2023-05-20T15:05:50;100431.66;;;29.24;35.91
72961;BME280;61141;46.204;19.774;2023-05-20T15:08:53;100432.72;;;29.52;36.07
72961;BME280;61141;46.204;19.774;2023-05-20T15:11:56;100432.97;;;29.08;35.98
72961;BME280;61141;46.204;19.774;2023-05-20T15:14:59;100425.00;;;29.27;35.34
72961;BME280;61141;46.204;19.774;2023-05-20T15:18:02;100425.62;;;29.62;34.83
72961;BME280;61141;46.204;19.774;2023-05-20T15:21:05;100409.78;;;29.70;34.83
72961;BME280;61141;46.204;19.774;2023-05-20T15:24:08;100403.09;;;29.42;35.45
72961;BME280;61141;46.204;19.774;2023-05-20T15:27:11;100396.63;;;29.16;35.71
72961;BME280;61141;46.204;19.774;2023-05-20T15:30:14;100397.13;;;29.14;35.61
72961;BME280;61141;46.204;19.774;2023-05-20T15:33:17;100398.84;;;29.27;35.55
72961;BME280;61141;46.204;19.774;2023-05-20T15:36:20;100410.50;;;28.59;37.96
72961;BME280;61141;46.204;19.774;2023-05-20T15:39:23;100412.09;;;26.90;38.87
72961;BME280;61141;46.204;19.774;2023-05-20T15:42:27;100406.63;;;26.63;38.94
72961;BME280;61141;46.204;19.774;2023-05-20T15:45:30;100415.72;;;25.74;41.48
72961;BME280;61141;46.204;19.774;2023-05-20T15:48:34;100419.22;;;25.51;43.46
72961;BME280;61141;46.204;19.774;2023-05-20T15:51:39;100407.03;;;25.08;44.59
72961;BME280;61141;46.204;19.774;2023-05-20T15:54:48;100404.53;;;25.10;44.86